sensor_id;sensor_type;location;lat;lon;timestamp;P1;durP1;ratioP1;P2;durP2;ratioP2
34136;SDS011;20414;50.860;4.382;2022-08-19T00:01:21;1.40;;;1.30;;
34136;SDS011;20414;50.860;4.382;2022-08-19T00:03:47;1.52;;;1.42;;
34136;SDS011;20414;50.860;4.382;2022-08-19T00:06:13;1.38;;;1.27;;
34136;SDS011;20414;50.860;4.382;2022-08-19T00:08:39;1.58;;;1.48;;
34136;SDS011;20414;50.860;4.382;2022-08-19T00:11:05;1.50;;;1.40;;
34136;SDS011;20414;50.860;4.382;2022-08-19T00:13:32;1.55;;;1.45;;
34136;SDS011;20414;50.860;4.382;2022-08-19T00:15:59;1.60;;;1.50;;
34136;SDS011;20414;50.860;4.382;2022-08-19T00:18:25;1.73;;;1.58;;
34136;SDS011;20414;50.860;4.382;2022-08-19T00:20:52;1.58;;;1.48;;
34136;SDS011;20414;50.860;4.382;2022-08-19T00:23:18;1.60;;;1.50;;
34136;SDS011;20414;50.860;4.382;2022-08-19T00:25:43;1.52;;;1.42;;
34136;SDS011;20414;50.860;4.382;2022-08-19T00:28:09;1.77;;;1.67;;
34136;SDS011;20414;50.860;4.382;2022-08-19T00:30:35;1.48;;;1.38;;
34136;SDS011;20414;50.860;4.382;2022-08-19T00:33:02;1.38;;;1.27;;
34136;SDS011;20414;50.860;4.382;2022-08-19T00:35:28;1.67;;;1.58;;
34136;SDS011;20414;50.860;4.382;2022-08-19T00:37:54;1.40;;;1.30;;
34136;SDS011;20414;50.860;4.382;2022-08-19T00:40:20;1.60;;;1.50;;
34136;SDS011;20414;50.860;4.382;2022-08-19T00:42:46;1.27;;;1.17;;
34136;SDS011;20414;50.860;4.382;2022-08-19T00:45:13;1.50;;;1.40;;
34136;SDS011;20414;50.860;4.382;2022-08-19T00:47:42;1.52;;;1.42;;
34136;SDS011;20414;50.860;4.382;2022-08-19T00:50:09;1.60;;;1.50;;
34136;SDS011;20414;50.860;4.382;2022-08-19T00:52:42;1.55;;;1.45;;
34136;SDS011;20414;50.860;4.382;2022-08-19T00:55:12;1.50;;;1.40;;
34136;SDS011;20414;50.860;4.382;2022-08-19T00:57:42;1.58;;;1.48;;
34136;SDS011;20414;50.860;4.382;2022-08-19T01:00:13;1.60;;;1.50;;
34136;SDS011;20414;50.860;4.382;2022-08-19T01:02:41;1.50;;;1.40;;
34136;SDS011;20414;50.860;4.382;2022-08-19T01:05:10;1.70;;;1.60;;
34136;SDS011;20414;50.860;4.382;2022-08-19T01:07:40;1.70;;;1.60;;
34136;SDS011;20414;50.860;4.382;2022-08-19T01:10:10;1.73;;;1.63;;
34136;SDS011;20414;50.860;4.382;2022-08-19T01:12:38;1.75;;;1.65;;
34136;SDS011;20414;50.860;4.382;2022-08-19T01:15:05;1.70;;;1.60;;
34136;SDS011;20414;50.860;4.382;2022-08-19T01:17:34;1.85;;;1.75;;
34136;SDS011;20414;50.860;4.382;2022-08-19T01:20:02;1.60;;;1.50;;
34136;SDS011;20414;50.860;4.382;2022-08-19T01:23:02;1.92;;;1.83;;
34136;SDS011;20414;50.860;4.382;2022-08-19T01:25:24;1.73;;;1.63;;
34136;SDS011;20414;50.860;4.382;2022-08-19T01:30:29;1.88;;;1.73;;
34136;SDS011;20414;50.860;4.382;2022-08-19T01:32:57;1.90;;;1.80;;
34136;SDS011;20414;50.860;4.382;2022-08-19T01:35:25;1.85;;;1.75;;
34136;SDS011;20414;50.860;4.382;2022-08-19T01:40:22;1.90;;;1.80;;
34136;SDS011;20414;50.860;4.382;2022-08-19T01:45:17;1.85;;;1.75;;
34136;SDS011;20414;50.860;4.382;2022-08-19T01:47:45;1.75;;;1.65;;
34136;SDS011;20414;50.860;4.382;2022-08-19T01:50:11;2.10;;;1.98;;
34136;SDS011;20414;50.860;4.382;2022-08-19T01:52:38;1.85;;;1.75;;
34136;SDS011;20414;50.860;4.382;2022-08-19T01:55:06;2.00;;;1.90;;
34136;SDS011;20414;50.860;4.382;2022-08-19T01:57:34;1.90;;;1.80;;
34136;SDS011;20414;50.860;4.382;2022-08-19T02:00:00;2.10;;;1.90;;
34136;SDS011;20414;50.860;4.382;2022-08-19T02:02:30;2.10;;;2.00;;
34136;SDS011;20414;50.860;4.382;2022-08-19T02:04:56;1.65;;;1.55;;
34136;SDS011;20414;50.860;4.382;2022-08-19T02:07:22;2.15;;;2.00;;
34136;SDS011;20414;50.860;4.382;2022-08-19T02:09:48;1.80;;;1.70;;
34136;SDS011;20414;50.860;4.382;2022-08-19T02:12:14;2.20;;;2.00;;
34136;SDS011;20414;50.860;4.382;2022-08-19T02:14:41;1.85;;;1.75;;
34136;SDS011;20414;50.860;4.382;2022-08-19T02:17:07;2.00;;;1.90;;
34136;SDS011;20414;50.860;4.382;2022-08-19T02:19:33;2.08;;;1.90;;
34136;SDS011;20414;50.860;4.382;2022-08-19T02:21:59;1.85;;;1.70;;
34136;SDS011;20414;50.860;4.382;2022-08-19T02:24:25;2.30;;;2.10;;
34136;SDS011;20414;50.860;4.382;2022-08-19T02:26:51;2.10;;;2.00;;
34136;SDS011;20414;50.860;4.382;2022-08-19T02:29:17;1.73;;;1.63;;
34136;SDS011;20414;50.860;4.382;2022-08-19T02:31:43;1.83;;;1.73;;
34136;SDS011;20414;50.860;4.382;2022-08-19T02:34:09;2.20;;;2.00;;
34136;SDS011;20414;50.860;4.382;2022-08-19T02:36:34;1.90;;;1.80;;
34136;SDS011;20414;50.860;4.382;2022-08-19T02:39:00;2.00;;;1.80;;
34136;SDS011;20414;50.860;4.382;2022-08-19T02:41:26;2.00;;;1.90;;
34136;SDS011;20414;50.860;4.382;2022-08-19T02:43:56;1.75;;;1.65;;
34136;SDS011;20414;50.860;4.382;2022-08-19T02:46:26;1.92;;;1.83;;
34136;SDS011;20414;50.860;4.382;2022-08-19T02:48:54;1.77;;;1.67;;
34136;SDS011;20414;50.860;4.382;2022-08-19T02:51:30;1.90;;;1.80;;
34136;SDS011;20414;50.860;4.382;2022-08-19T02:54:01;2.20;;;2.00;;
34136;SDS011;20414;50.860;4.382;2022-08-19T02:56:27;2.10;;;2.00;;
34136;SDS011;20414;50.860;4.382;2022-08-19T02:58:53;2.20;;;2.00;;
34136;SDS011;20414;50.860;4.382;2022-08-19T03:01:24;2.05;;;1.85;;
34136;SDS011;20414;50.860;4.382;2022-08-19T03:03:52;2.20;;;2.00;;
34136;SDS011;20414;50.860;4.382;2022-08-19T03:06:18;2.10;;;1.90;;
34136;SDS011;20414;50.860;4.382;2022-08-19T03:08:46;2.17;;;2.03;;
34136;SDS011;20414;50.860;4.382;2022-08-19T03:13:39;1.95;;;1.83;;
34136;SDS011;20414;50.860;4.382;2022-08-19T03:16:05;2.03;;;1.90;;
34136;SDS011;20414;50.860;4.382;2022-08-19T03:18:31;1.95;;;1.85;;
34136;SDS011;20414;50.860;4.382;2022-08-19T03:20:57;2.20;;;1.95;;
34136;SDS011;20414;50.860;4.382;2022-08-19T03:23:23;2.15;;;2.00;;
34136;SDS011;20414;50.860;4.382;2022-08-19T03:25:51;1.77;;;1.67;;
34136;SDS011;20414;50.860;4.382;2022-08-19T03:30:54;1.80;;;1.70;;
34136;SDS011;20414;50.860;4.382;2022-08-19T03:33:21;2.30;;;2.00;;
34136;SDS011;20414;50.860;4.382;2022-08-19T03:35:58;1.80;;;1.70;;
34136;SDS011;20414;50.860;4.382;2022-08-19T03:38:25;2.00;;;1.90;;
34136;SDS011;20414;50.860;4.382;2022-08-19T03:40:51;1.92;;;1.83;;
34136;SDS011;20414;50.860;4.382;2022-08-19T03:43:17;1.90;;;1.80;;
34136;SDS011;20414;50.860;4.382;2022-08-19T03:45:43;2.20;;;1.95;;
34136;SDS011;20414;50.860;4.382;2022-08-19T03:48:09;2.17;;;1.98;;
34136;SDS011;20414;50.860;4.382;2022-08-19T03:50:38;1.98;;;1.88;;
34136;SDS011;20414;50.860;4.382;2022-08-19T03:53:05;2.22;;;2.03;;
34136;SDS011;20414;50.860;4.382;2022-08-19T03:55:31;2.13;;;1.92;;
34136;SDS011;20414;50.860;4.382;2022-08-19T03:57:56;2.05;;;1.95;;
34136;SDS011;20414;50.860;4.382;2022-08-19T04:00:22;1.85;;;1.75;;
34136;SDS011;20414;50.860;4.382;2022-08-19T04:02:48;2.00;;;1.90;;
34136;SDS011;20414;50.860;4.382;2022-08-19T04:05:13;2.00;;;1.80;;
34136;SDS011;20414;50.860;4.382;2022-08-19T04:07:40;2.10;;;1.90;;
34136;SDS011;20414;50.860;4.382;2022-08-19T04:10:05;2.10;;;1.90;;
34136;SDS011;20414;50.860;4.382;2022-08-19T04:12:31;1.88;;;1.77;;
34136;SDS011;20414;50.860;4.382;2022-08-19T04:14:57;2.17;;;2.00;;
34136;SDS011;20414;50.860;4.382;2022-08-19T04:17:23;1.83;;;1.73;;
34136;SDS011;20414;50.860;4.382;2022-08-19T04:19:49;2.10;;;2.00;;
34136;SDS011;20414;50.860;4.382;2022-08-19T04:22:14;1.95;;;1.83;;
34136;SDS011;20414;50.860;4.382;2022-08-19T04:24:40;1.83;;;1.73;;
34136;SDS011;20414;50.860;4.382;2022-08-19T04:27:06;1.88;;;1.77;;
34136;SDS011;20414;50.860;4.382;2022-08-19T04:29:32;1.60;;;1.50;;
34136;SDS011;20414;50.860;4.382;2022-08-19T04:31:58;2.13;;;1.92;;
34136;SDS011;20414;50.860;4.382;2022-08-19T04:34:25;2.00;;;1.90;;
34136;SDS011;20414;50.860;4.382;2022-08-19T04:36:54;2.00;;;1.90;;
34136;SDS011;20414;50.860;4.382;2022-08-19T04:39:22;1.88;;;1.77;;
34136;SDS011;20414;50.860;4.382;2022-08-19T04:42:09;1.90;;;1.80;;
34136;SDS011;20414;50.860;4.382;2022-08-19T04:44:54;2.10;;;1.90;;
34136;SDS011;20414;50.860;4.382;2022-08-19T04:47:19;2.35;;;1.83;;
34136;SDS011;20414;50.860;4.382;2022-08-19T04:49:45;2.03;;;1.90;;
34136;SDS011;20414;50.860;4.382;2022-08-19T04:52:11;1.77;;;1.67;;
34136;SDS011;20414;50.860;4.382;2022-08-19T04:54:37;2.03;;;1.92;;
34136;SDS011;20414;50.860;4.382;2022-08-19T04:57:03;1.75;;;1.65;;
34136;SDS011;20414;50.860;4.382;2022-08-19T04:59:31;1.98;;;1.88;;
34136;SDS011;20414;50.860;4.382;2022-08-19T05:01:58;1.88;;;1.75;;
34136;SDS011;20414;50.860;4.382;2022-08-19T05:04:24;2.10;;;1.98;;
34136;SDS011;20414;50.860;4.382;2022-08-19T05:06:49;1.85;;;1.70;;
34136;SDS011;20414;50.860;4.382;2022-08-19T05:09:17;1.90;;;1.80;;
34136;SDS011;20414;50.860;4.382;2022-08-19T05:11:43;1.90;;;1.80;;
34136;SDS011;20414;50.860;4.382;2022-08-19T05:14:09;1.88;;;1.75;;
34136;SDS011;20414;50.860;4.382;2022-08-19T05:16:37;1.90;;;1.80;;
34136;SDS011;20414;50.860;4.382;2022-08-19T05:19:03;2.10;;;1.90;;
34136;SDS011;20414;50.860;4.382;2022-08-19T05:21:47;1.90;;;1.80;;
34136;SDS011;20414;50.860;4.382;2022-08-19T05:24:31;1.70;;;1.60;;
34136;SDS011;20414;50.860;4.382;2022-08-19T05:27:00;1.75;;;1.65;;
34136;SDS011;20414;50.860;4.382;2022-08-19T05:29:28;1.92;;;1.83;;
34136;SDS011;20414;50.860;4.382;2022-08-19T05:31:56;1.93;;;1.73;;
34136;SDS011;20414;50.860;4.382;2022-08-19T05:34:22;2.00;;;1.80;;
34136;SDS011;20414;50.860;4.382;2022-08-19T05:36:51;1.80;;;1.70;;
34136;SDS011;20414;50.860;4.382;2022-08-19T05:39:22;1.88;;;1.77;;
34136;SDS011;20414;50.860;4.382;2022-08-19T05:41:57;1.90;;;1.80;;
34136;SDS011;20414;50.860;4.382;2022-08-19T05:44:25;2.20;;;2.00;;
34136;SDS011;20414;50.860;4.382;2022-08-19T05:46:55;1.70;;;1.60;;
34136;SDS011;20414;50.860;4.382;2022-08-19T05:49:21;2.17;;;1.83;;
34136;SDS011;20414;50.860;4.382;2022-08-19T05:51:48;1.83;;;1.73;;
34136;SDS011;20414;50.860;4.382;2022-08-19T05:54:14;2.10;;;1.92;;
34136;SDS011;20414;50.860;4.382;2022-08-19T05:56:40;1.85;;;1.75;;
34136;SDS011;20414;50.860;4.382;2022-08-19T05:59:08;1.77;;;1.67;;
34136;SDS011;20414;50.860;4.382;2022-08-19T06:01:39;1.92;;;1.80;;
34136;SDS011;20414;50.860;4.382;2022-08-19T06:04:06;1.98;;;1.88;;
34136;SDS011;20414;50.860;4.382;2022-08-19T06:06:33;1.80;;;1.70;;
34136;SDS011;20414;50.860;4.382;2022-08-19T06:09:04;1.90;;;1.70;;
34136;SDS011;20414;50.860;4.382;2022-08-19T06:14:00;1.80;;;1.70;;
34136;SDS011;20414;50.860;4.382;2022-08-19T06:16:28;1.90;;;1.77;;
34136;SDS011;20414;50.860;4.382;2022-08-19T06:18:55;1.92;;;1.83;;
34136;SDS011;20414;50.860;4.382;2022-08-19T06:21:22;2.25;;;2.00;;
34136;SDS011;20414;50.860;4.382;2022-08-19T06:23:50;1.80;;;1.70;;
34136;SDS011;20414;50.860;4.382;2022-08-19T06:26:17;1.85;;;1.70;;
34136;SDS011;20414;50.860;4.382;2022-08-19T06:28:44;1.77;;;1.67;;
34136;SDS011;20414;50.860;4.382;2022-08-19T06:31:15;1.95;;;1.85;;
34136;SDS011;20414;50.860;4.382;2022-08-19T06:33:43;1.73;;;1.60;;
34136;SDS011;20414;50.860;4.382;2022-08-19T06:36:24;1.83;;;1.73;;
34136;SDS011;20414;50.860;4.382;2022-08-19T06:39:03;2.05;;;1.88;;
34136;SDS011;20414;50.860;4.382;2022-08-19T06:41:31;1.92;;;1.83;;
34136;SDS011;20414;50.860;4.382;2022-08-19T06:44:01;2.15;;;1.95;;
34136;SDS011;20414;50.860;4.382;2022-08-19T06:46:27;1.98;;;1.88;;
34136;SDS011;20414;50.860;4.382;2022-08-19T06:48:52;1.80;;;1.70;;
34136;SDS011;20414;50.860;4.382;2022-08-19T06:51:19;1.90;;;1.80;;
34136;SDS011;20414;50.860;4.382;2022-08-19T06:53:48;1.83;;;1.73;;
34136;SDS011;20414;50.860;4.382;2022-08-19T06:56:18;2.08;;;1.83;;
34136;SDS011;20414;50.860;4.382;2022-08-19T06:58:50;1.58;;;1.48;;
34136;SDS011;20414;50.860;4.382;2022-08-19T07:01:18;2.53;;;1.95;;
34136;SDS011;20414;50.860;4.382;2022-08-19T07:03:45;1.90;;;1.80;;
34136;SDS011;20414;50.860;4.382;2022-08-19T07:06:12;1.83;;;1.73;;
34136;SDS011;20414;50.860;4.382;2022-08-19T07:08:42;1.80;;;1.70;;
34136;SDS011;20414;50.860;4.382;2022-08-19T07:11:10;1.92;;;1.83;;
34136;SDS011;20414;50.860;4.382;2022-08-19T07:13:38;1.60;;;1.50;;
34136;SDS011;20414;50.860;4.382;2022-08-19T07:16:09;1.85;;;1.73;;
34136;SDS011;20414;50.860;4.382;2022-08-19T07:18:38;1.90;;;1.80;;
34136;SDS011;20414;50.860;4.382;2022-08-19T07:21:08;2.50;;;1.98;;
34136;SDS011;20414;50.860;4.382;2022-08-19T07:23:36;1.75;;;1.65;;
34136;SDS011;20414;50.860;4.382;2022-08-19T07:26:06;1.55;;;1.45;;
34136;SDS011;20414;50.860;4.382;2022-08-19T07:28:31;1.63;;;1.48;;
34136;SDS011;20414;50.860;4.382;2022-08-19T07:30:57;2.10;;;1.90;;
34136;SDS011;20414;50.860;4.382;2022-08-19T07:33:23;1.88;;;1.77;;
34136;SDS011;20414;50.860;4.382;2022-08-19T07:35:48;1.90;;;1.80;;
34136;SDS011;20414;50.860;4.382;2022-08-19T07:38:15;2.05;;;1.85;;
34136;SDS011;20414;50.860;4.382;2022-08-19T07:40:41;1.55;;;1.45;;
34136;SDS011;20414;50.860;4.382;2022-08-19T07:43:08;1.63;;;1.52;;
34136;SDS011;20414;50.860;4.382;2022-08-19T07:45:34;1.60;;;1.50;;
34136;SDS011;20414;50.860;4.382;2022-08-19T07:48:00;1.77;;;1.67;;
34136;SDS011;20414;50.860;4.382;2022-08-19T07:50:26;1.70;;;1.60;;
34136;SDS011;20414;50.860;4.382;2022-08-19T07:52:51;1.83;;;1.70;;
34136;SDS011;20414;50.860;4.382;2022-08-19T07:55:23;1.77;;;1.48;;
34136;SDS011;20414;50.860;4.382;2022-08-19T07:57:49;1.52;;;1.42;;
34136;SDS011;20414;50.860;4.382;2022-08-19T08:00:17;1.70;;;1.60;;
34136;SDS011;20414;50.860;4.382;2022-08-19T08:02:43;1.60;;;1.50;;
34136;SDS011;20414;50.860;4.382;2022-08-19T08:05:09;1.60;;;1.50;;
34136;SDS011;20414;50.860;4.382;2022-08-19T08:07:54;1.60;;;1.50;;
34136;SDS011;20414;50.860;4.382;2022-08-19T08:10:38;1.80;;;1.70;;
34136;SDS011;20414;50.860;4.382;2022-08-19T08:13:04;1.75;;;1.65;;
34136;SDS011;20414;50.860;4.382;2022-08-19T08:15:30;1.40;;;1.30;;
34136;SDS011;20414;50.860;4.382;2022-08-19T08:17:56;1.73;;;1.63;;
34136;SDS011;20414;50.860;4.382;2022-08-19T08:20:22;1.50;;;1.40;;
34136;SDS011;20414;50.860;4.382;2022-08-19T08:22:49;1.70;;;1.60;;
34136;SDS011;20414;50.860;4.382;2022-08-19T08:25:34;1.70;;;1.60;;
34136;SDS011;20414;50.860;4.382;2022-08-19T08:28:01;1.65;;;1.50;;
34136;SDS011;20414;50.860;4.382;2022-08-19T08:30:29;1.80;;;1.70;;
34136;SDS011;20414;50.860;4.382;2022-08-19T08:32:57;2.35;;;1.30;;
34136;SDS011;20414;50.860;4.382;2022-08-19T08:35:23;1.65;;;1.55;;
34136;SDS011;20414;50.860;4.382;2022-08-19T08:37:50;1.48;;;1.35;;
34136;SDS011;20414;50.860;4.382;2022-08-19T08:43:17;1.50;;;1.40;;
34136;SDS011;20414;50.860;4.382;2022-08-19T08:46:15;1.70;;;1.50;;
34136;SDS011;20414;50.860;4.382;2022-08-19T08:49:06;1.38;;;1.27;;
34136;SDS011;20414;50.860;4.382;2022-08-19T08:52:07;1.83;;;1.67;;
34136;SDS011;20414;50.860;4.382;2022-08-19T08:54:41;1.58;;;1.48;;
34136;SDS011;20414;50.860;4.382;2022-08-19T08:57:14;1.40;;;1.30;;
34136;SDS011;20414;50.860;4.382;2022-08-19T08:59:45;1.60;;;1.50;;
34136;SDS011;20414;50.860;4.382;2022-08-19T09:02:16;1.52;;;1.42;;
34136;SDS011;20414;50.860;4.382;2022-08-19T09:04:43;1.63;;;1.52;;
34136;SDS011;20414;50.860;4.382;2022-08-19T09:16:07;1.50;;;1.40;;
34136;SDS011;20414;50.860;4.382;2022-08-19T09:18:43;1.48;;;1.38;;
34136;SDS011;20414;50.860;4.382;2022-08-19T09:21:12;1.65;;;1.55;;
34136;SDS011;20414;50.860;4.382;2022-08-19T09:23:39;1.88;;;1.48;;
34136;SDS011;20414;50.860;4.382;2022-08-19T09:26:09;1.50;;;1.40;;
34136;SDS011;20414;50.860;4.382;2022-08-19T09:28:38;1.40;;;1.30;;
34136;SDS011;20414;50.860;4.382;2022-08-19T09:31:13;1.38;;;1.27;;
34136;SDS011;20414;50.860;4.382;2022-08-19T09:33:41;1.40;;;1.30;;
34136;SDS011;20414;50.860;4.382;2022-08-19T09:36:09;1.58;;;1.48;;
34136;SDS011;20414;50.860;4.382;2022-08-19T09:38:38;1.40;;;1.30;;
34136;SDS011;20414;50.860;4.382;2022-08-19T09:41:06;1.48;;;1.30;;
34136;SDS011;20414;50.860;4.382;2022-08-19T09:43:36;1.20;;;1.10;;
34136;SDS011;20414;50.860;4.382;2022-08-19T09:46:02;1.73;;;1.60;;
34136;SDS011;20414;50.860;4.382;2022-08-19T09:48:34;1.88;;;1.52;;
34136;SDS011;20414;50.860;4.382;2022-08-19T09:51:08;1.60;;;1.50;;
34136;SDS011;20414;50.860;4.382;2022-08-19T09:53:36;1.88;;;1.60;;
34136;SDS011;20414;50.860;4.382;2022-08-19T09:56:03;1.63;;;1.52;;
34136;SDS011;20414;50.860;4.382;2022-08-19T09:58:30;1.48;;;1.38;;
34136;SDS011;20414;50.860;4.382;2022-08-19T10:00:57;1.55;;;1.45;;
34136;SDS011;20414;50.860;4.382;2022-08-19T10:03:25;1.50;;;1.30;;
34136;SDS011;20414;50.860;4.382;2022-08-19T10:05:52;1.50;;;1.40;;
34136;SDS011;20414;50.860;4.382;2022-08-19T10:08:20;1.40;;;1.30;;
34136;SDS011;20414;50.860;4.382;2022-08-19T10:10:48;1.63;;;1.52;;
34136;SDS011;20414;50.860;4.382;2022-08-19T10:13:16;1.42;;;1.33;;
34136;SDS011;20414;50.860;4.382;2022-08-19T10:15:46;1.50;;;1.38;;
34136;SDS011;20414;50.860;4.382;2022-08-19T10:18:14;1.27;;;1.17;;
34136;SDS011;20414;50.860;4.382;2022-08-19T10:20:42;1.27;;;1.17;;
34136;SDS011;20414;50.860;4.382;2022-08-19T10:23:10;1.50;;;1.40;;
34136;SDS011;20414;50.860;4.382;2022-08-19T10:25:37;1.42;;;1.33;;
34136;SDS011;20414;50.860;4.382;2022-08-19T10:28:03;1.90;;;1.67;;
34136;SDS011;20414;50.860;4.382;2022-08-19T10:30:30;1.45;;;1.35;;
34136;SDS011;20414;50.860;4.382;2022-08-19T10:32:57;1.42;;;1.33;;
34136;SDS011;20414;50.860;4.382;2022-08-19T10:35:22;1.50;;;1.40;;
34136;SDS011;20414;50.860;4.382;2022-08-19T10:37:50;1.35;;;1.25;;
34136;SDS011;20414;50.860;4.382;2022-08-19T10:40:16;1.30;;;1.20;;
34136;SDS011;20414;50.860;4.382;2022-08-19T10:42:41;1.35;;;1.25;;
34136;SDS011;20414;50.860;4.382;2022-08-19T10:45:08;1.30;;;1.20;;
34136;SDS011;20414;50.860;4.382;2022-08-19T10:47:35;1.67;;;1.40;;
34136;SDS011;20414;50.860;4.382;2022-08-19T10:50:02;1.40;;;1.30;;
34136;SDS011;20414;50.860;4.382;2022-08-19T10:52:47;1.70;;;1.40;;
34136;SDS011;20414;50.860;4.382;2022-08-19T10:55:14;1.58;;;1.48;;
34136;SDS011;20414;50.860;4.382;2022-08-19T10:57:59;1.50;;;1.40;;
34136;SDS011;20414;50.860;4.382;2022-08-19T11:00:24;1.30;;;1.20;;
34136;SDS011;20414;50.860;4.382;2022-08-19T11:02:51;1.52;;;1.42;;
34136;SDS011;20414;50.860;4.382;2022-08-19T11:05:17;1.50;;;1.35;;
34136;SDS011;20414;50.860;4.382;2022-08-19T11:07:44;1.42;;;1.33;;
34136;SDS011;20414;50.860;4.382;2022-08-19T11:10:11;1.50;;;1.40;;
34136;SDS011;20414;50.860;4.382;2022-08-19T11:12:39;1.30;;;1.20;;
34136;SDS011;20414;50.860;4.382;2022-08-19T11:15:06;1.20;;;1.10;;
34136;SDS011;20414;50.860;4.382;2022-08-19T11:17:34;1.40;;;1.30;;
34136;SDS011;20414;50.860;4.382;2022-08-19T11:20:01;1.70;;;1.20;;
34136;SDS011;20414;50.860;4.382;2022-08-19T11:22:29;1.30;;;1.20;;
34136;SDS011;20414;50.860;4.382;2022-08-19T11:24:55;1.38;;;1.27;;
34136;SDS011;20414;50.860;4.382;2022-08-19T11:27:28;1.30;;;1.20;;
34136;SDS011;20414;50.860;4.382;2022-08-19T11:29:54;1.20;;;1.10;;
34136;SDS011;20414;50.860;4.382;2022-08-19T11:32:19;1.30;;;1.20;;
34136;SDS011;20414;50.860;4.382;2022-08-19T11:34:45;1.35;;;1.25;;
34136;SDS011;20414;50.860;4.382;2022-08-19T11:37:11;1.38;;;1.27;;
34136;SDS011;20414;50.860;4.382;2022-08-19T11:39:36;1.40;;;1.30;;
34136;SDS011;20414;50.860;4.382;2022-08-19T11:42:04;1.30;;;1.20;;
34136;SDS011;20414;50.860;4.382;2022-08-19T11:44:51;1.58;;;1.30;;
34136;SDS011;20414;50.860;4.382;2022-08-19T11:47:17;1.40;;;1.30;;
34136;SDS011;20414;50.860;4.382;2022-08-19T11:49:45;1.67;;;1.30;;
34136;SDS011;20414;50.860;4.382;2022-08-19T11:52:11;1.40;;;1.30;;
34136;SDS011;20414;50.860;4.382;2022-08-19T11:54:37;1.58;;;1.30;;
34136;SDS011;20414;50.860;4.382;2022-08-19T11:57:03;1.60;;;1.50;;
34136;SDS011;20414;50.860;4.382;2022-08-19T11:59:29;1.40;;;1.30;;
34136;SDS011;20414;50.860;4.382;2022-08-19T12:01:54;1.60;;;1.50;;
34136;SDS011;20414;50.860;4.382;2022-08-19T12:04:21;1.42;;;1.30;;
34136;SDS011;20414;50.860;4.382;2022-08-19T12:06:48;1.60;;;1.50;;
34136;SDS011;20414;50.860;4.382;2022-08-19T12:09:15;1.40;;;1.30;;
34136;SDS011;20414;50.860;4.382;2022-08-19T12:11:42;1.30;;;1.20;;
34136;SDS011;20414;50.860;4.382;2022-08-19T12:14:09;1.48;;;1.38;;
34136;SDS011;20414;50.860;4.382;2022-08-19T12:16:36;1.30;;;1.20;;
34136;SDS011;20414;50.860;4.382;2022-08-19T12:19:03;1.40;;;1.30;;
34136;SDS011;20414;50.860;4.382;2022-08-19T12:21:30;1.42;;;1.33;;
34136;SDS011;20414;50.860;4.382;2022-08-19T12:23:58;1.42;;;1.33;;
34136;SDS011;20414;50.860;4.382;2022-08-19T12:26:25;1.35;;;1.25;;
34136;SDS011;20414;50.860;4.382;2022-08-19T12:28:52;1.40;;;1.30;;
34136;SDS011;20414;50.860;4.382;2022-08-19T12:31:18;1.40;;;1.30;;
34136;SDS011;20414;50.860;4.382;2022-08-19T12:33:45;1.90;;;1.20;;
34136;SDS011;20414;50.860;4.382;2022-08-19T12:36:12;1.30;;;1.20;;
34136;SDS011;20414;50.860;4.382;2022-08-19T12:38:39;1.30;;;1.20;;
34136;SDS011;20414;50.860;4.382;2022-08-19T12:41:06;1.70;;;1.60;;
34136;SDS011;20414;50.860;4.382;2022-08-19T12:43:34;1.02;;;1.02;;
34136;SDS011;20414;50.860;4.382;2022-08-19T12:46:00;1.30;;;1.20;;
34136;SDS011;20414;50.860;4.382;2022-08-19T12:48:26;1.48;;;1.30;;
34136;SDS011;20414;50.860;4.382;2022-08-19T12:50:52;1.15;;;1.05;;
34136;SDS011;20414;50.860;4.382;2022-08-19T12:53:17;1.30;;;1.20;;
34136;SDS011;20414;50.860;4.382;2022-08-19T12:55:43;1.25;;;1.15;;
34136;SDS011;20414;50.860;4.382;2022-08-19T12:58:09;1.20;;;1.10;;
34136;SDS011;20414;50.860;4.382;2022-08-19T13:00:35;1.33;;;1.23;;
34136;SDS011;20414;50.860;4.382;2022-08-19T13:03:01;1.50;;;1.40;;
34136;SDS011;20414;50.860;4.382;2022-08-19T13:05:29;1.55;;;1.33;;
34136;SDS011;20414;50.860;4.382;2022-08-19T13:07:56;1.08;;;1.08;;
34136;SDS011;20414;50.860;4.382;2022-08-19T13:10:25;1.30;;;1.20;;
34136;SDS011;20414;50.860;4.382;2022-08-19T13:12:53;2.25;;;1.30;;
34136;SDS011;20414;50.860;4.382;2022-08-19T13:15:21;1.40;;;1.30;;
34136;SDS011;20414;50.860;4.382;2022-08-19T13:17:49;1.33;;;1.23;;
34136;SDS011;20414;50.860;4.382;2022-08-19T13:20:17;1.20;;;1.10;;
34136;SDS011;20414;50.860;4.382;2022-08-19T13:22:44;1.30;;;1.20;;
34136;SDS011;20414;50.860;4.382;2022-08-19T13:25:10;1.30;;;1.20;;
34136;SDS011;20414;50.860;4.382;2022-08-19T13:27:37;1.30;;;1.20;;
34136;SDS011;20414;50.860;4.382;2022-08-19T13:30:05;1.30;;;1.20;;
34136;SDS011;20414;50.860;4.382;2022-08-19T13:32:52;1.10;;;1.00;;
34136;SDS011;20414;50.860;4.382;2022-08-19T13:35:46;1.15;;;1.05;;
34136;SDS011;20414;50.860;4.382;2022-08-19T13:38:17;1.30;;;1.20;;
34136;SDS011;20414;50.860;4.382;2022-08-19T13:40:45;1.25;;;1.15;;
34136;SDS011;20414;50.860;4.382;2022-08-19T13:43:12;1.20;;;1.10;;
34136;SDS011;20414;50.860;4.382;2022-08-19T13:45:38;1.20;;;1.10;;
34136;SDS011;20414;50.860;4.382;2022-08-19T13:48:05;1.23;;;1.10;;
34136;SDS011;20414;50.860;4.382;2022-08-19T13:50:33;1.20;;;1.10;;
34136;SDS011;20414;50.860;4.382;2022-08-19T13:53:01;1.50;;;1.40;;
34136;SDS011;20414;50.860;4.382;2022-08-19T13:55:27;0.90;;;0.90;;
34136;SDS011;20414;50.860;4.382;2022-08-19T13:57:57;0.82;;;0.82;;
34136;SDS011;20414;50.860;4.382;2022-08-19T14:00:26;1.00;;;1.00;;
34136;SDS011;20414;50.860;4.382;2022-08-19T14:02:53;1.20;;;1.10;;
34136;SDS011;20414;50.860;4.382;2022-08-19T14:05:21;1.05;;;1.00;;
34136;SDS011;20414;50.860;4.382;2022-08-19T14:07:47;1.17;;;1.08;;
34136;SDS011;20414;50.860;4.382;2022-08-19T14:10:13;1.38;;;1.17;;
34136;SDS011;20414;50.860;4.382;2022-08-19T14:12:40;1.10;;;1.10;;
34136;SDS011;20414;50.860;4.382;2022-08-19T14:15:08;1.05;;;1.00;;
34136;SDS011;20414;50.860;4.382;2022-08-19T14:17:37;1.30;;;1.20;;
34136;SDS011;20414;50.860;4.382;2022-08-19T14:20:06;1.40;;;1.30;;
34136;SDS011;20414;50.860;4.382;2022-08-19T14:22:37;1.10;;;1.00;;
34136;SDS011;20414;50.860;4.382;2022-08-19T14:25:06;1.20;;;1.10;;
34136;SDS011;20414;50.860;4.382;2022-08-19T14:27:33;1.30;;;1.20;;
34136;SDS011;20414;50.860;4.382;2022-08-19T14:30:01;1.10;;;1.00;;
34136;SDS011;20414;50.860;4.382;2022-08-19T14:32:27;1.10;;;1.00;;
34136;SDS011;20414;50.860;4.382;2022-08-19T14:34:53;0.90;;;0.90;;
34136;SDS011;20414;50.860;4.382;2022-08-19T14:37:19;1.60;;;1.10;;
34136;SDS011;20414;50.860;4.382;2022-08-19T14:39:47;1.13;;;1.00;;
34136;SDS011;20414;50.860;4.382;2022-08-19T14:42:13;0.90;;;0.90;;
34136;SDS011;20414;50.860;4.382;2022-08-19T14:44:39;0.90;;;0.90;;
34136;SDS011;20414;50.860;4.382;2022-08-19T14:47:06;1.08;;;1.02;;
34136;SDS011;20414;50.860;4.382;2022-08-19T14:49:32;1.10;;;1.00;;
34136;SDS011;20414;50.860;4.382;2022-08-19T14:51:58;0.90;;;0.90;;
34136;SDS011;20414;50.860;4.382;2022-08-19T14:54:24;1.02;;;1.00;;
34136;SDS011;20414;50.860;4.382;2022-08-19T14:56:50;0.82;;;0.80;;
34136;SDS011;20414;50.860;4.382;2022-08-19T14:59:16;0.95;;;0.93;;
34136;SDS011;20414;50.860;4.382;2022-08-19T15:01:42;1.10;;;1.00;;
34136;SDS011;20414;50.860;4.382;2022-08-19T15:04:08;1.17;;;1.08;;
34136;SDS011;20414;50.860;4.382;2022-08-19T15:06:33;0.90;;;0.90;;
34136;SDS011;20414;50.860;4.382;2022-08-19T15:08:59;0.80;;;0.80;;
34136;SDS011;20414;50.860;4.382;2022-08-19T15:11:26;0.82;;;0.82;;
34136;SDS011;20414;50.860;4.382;2022-08-19T15:13:53;0.85;;;0.85;;
34136;SDS011;20414;50.860;4.382;2022-08-19T15:16:20;1.08;;;1.00;;
34136;SDS011;20414;50.860;4.382;2022-08-19T15:18:46;1.27;;;0.80;;
34136;SDS011;20414;50.860;4.382;2022-08-19T15:21:16;1.08;;;1.00;;